Time;durP1;ratioP1;P1;durP2;ratioP2;P2;SDS_P1;SDS_P2;PMS_P1;PMS_P2;Temp;Humidity;BMP_temperature;BMP_pressure;BME280_temperature;BME280_humidity;BME280_pressure;Samples;Min_cycle;Max_cycle;Signal;HPM_P1;HPM_P2
2020/12/03 00:02:16;;;;;;;27.00;14.57;;;4.20;99.90;;;;;;5054808;28;20171;-66
2020/12/03 00:04:46;;;;;;;22.67;14.30;;;4.20;99.90;;;;;;5054288;28;20195;-65
2020/12/03 00:07:14;;;;;;;26.13;14.80;;;4.20;99.90;;;;;;5054469;28;20167;-66
2020/12/03 00:09:45;;;;;;;23.57;14.30;;;4.20;99.90;;;;;;5055148;28;20623;-67
2020/12/03 00:12:11;;;;;;;27.53;15.90;;;4.20;99.90;;;;;;5053718;28;20280;-67
2020/12/03 00:14:36;;;;;;;26.47;14.37;;;4.20;99.90;;;;;;5054227;28;20225;-66
2020/12/03 00:17:02;;;;;;;26.40;14.93;;;4.20;99.90;;;;;;5054344;28;20205;-66
2020/12/03 00:19:28;;;;;;;23.00;13.77;;;4.20;99.90;;;;;;5054621;28;20171;-65
2020/12/03 00:21:58;;;;;;;25.23;16.00;;;4.20;99.90;;;;;;5053067;28;20228;-66
2020/12/03 00:24:27;;;;;;;26.33;15.73;;;4.20;99.90;;;;;;5053672;28;20562;-66
2020/12/03 00:26:53;;;;;;;24.63;16.33;;;4.20;99.90;;;;;;5054050;28;20297;-66
2020/12/03 00:29:19;;;;;;;25.33;14.60;;;4.20;99.90;;;;;;5053831;28;20210;-65
2020/12/03 00:31:47;;;;;;;25.40;15.60;;;4.20;99.90;;;;;;5054042;28;20232;-67
2020/12/03 00:34:14;;;;;;;26.57;14.77;;;4.20;99.90;;;;;;5054356;28;20222;-67
2020/12/03 00:36:40;;;;;;;26.53;15.13;;;4.20;99.90;;;;;;5052778;28;20186;-66
2020/12/03 00:39:09;;;;;;;31.97;15.83;;;4.20;99.90;;;;;;5055674;28;20283;-66
2020/12/03 00:41:35;;;;;;;26.33;16.13;;;4.20;99.90;;;;;;5052906;28;20189;-66
2020/12/03 00:44:01;;;;;;;27.07;15.53;;;4.20;99.90;;;;;;5053841;28;20297;-66
2020/12/03 00:46:30;;;;;;;24.40;14.73;;;4.20;99.90;;;;;;5054031;28;20179;-66
2020/12/03 00:48:56;;;;;;;25.83;14.97;;;4.20;99.90;;;;;;5054264;28;20233;-66
2020/12/03 00:51:22;;;;;;;24.50;15.37;;;4.20;99.90;;;;;;5053191;28;20170;-66
2020/12/03 00:53:48;;;;;;;29.17;15.73;;;4.20;99.90;;;;;;5053822;28;20190;-66
2020/12/03 00:56:13;;;;;;;29.13;15.60;;;4.20;99.90;;;;;;5054208;28;20632;-67
2020/12/03 00:58:39;;;;;;;22.53;14.00;;;4.20;99.90;;;;;;5054146;28;20217;-66
2020/12/03 01:01:05;;;;;;;25.43;14.63;;;4.30;99.90;;;;;;5053732;28;20213;-67
2020/12/03 01:03:30;;;;;;;26.40;15.77;;;4.30;99.90;;;;;;5056188;28;20733;-67
2020/12/03 01:05:56;;;;;;;25.33;15.10;;;4.30;99.90;;;;;;5053703;28;20313;-67
2020/12/03 01:08:21;;;;;;;24.53;14.83;;;4.30;99.90;;;;;;5054477;28;20257;-65
2020/12/03 01:10:47;;;;;;;25.60;14.87;;;4.30;99.90;;;;;;5053875;28;20202;-67
2020/12/03 01:13:12;;;;;;;24.13;15.23;;;4.30;99.90;;;;;;5053861;28;20187;-66
2020/12/03 01:15:38;;;;;;;26.17;14.60;;;4.40;99.90;;;;;;5054511;28;20186;-66
2020/12/03 01:18:04;;;;;;;31.30;16.17;;;4.40;99.90;;;;;;5054702;28;20198;-66
2020/12/03 01:20:30;;;;;;;22.00;14.57;;;4.40;99.90;;;;;;5052402;28;20211;-65
2020/12/03 01:22:56;;;;;;;24.00;14.13;;;4.50;99.90;;;;;;5054224;28;20209;-67
2020/12/03 01:25:24;;;;;;;27.67;16.00;;;4.50;99.90;;;;;;5052985;28;20182;-66
2020/12/03 01:27:51;;;;;;;22.97;14.83;;;4.50;99.90;;;;;;5053924;28;20163;-65
2020/12/03 01:30:20;;;;;;;24.67;14.30;;;4.50;99.90;;;;;;5052480;28;20202;-67
2020/12/03 01:32:46;;;;;;;26.43;15.77;;;4.50;99.90;;;;;;5052792;28;20182;-67
2020/12/03 01:35:14;;;;;;;20.67;13.43;;;4.50;99.90;;;;;;5053715;28;20198;-65
2020/12/03 01:37:40;;;;;;;23.67;14.93;;;4.50;99.90;;;;;;5054094;28;20174;-66
2020/12/03 01:40:12;;;;;;;26.50;16.00;;;4.50;99.90;;;;;;5053179;28;20637;-66
2020/12/03 01:42:40;;;;;;;25.80;14.93;;;4.50;99.90;;;;;;5054419;28;20186;-66
2020/12/03 01:45:43;;;;;;;26.37;14.73;;;4.50;99.90;;;;;;5058078;28;20206;-66
2020/12/03 01:48:31;;;;;;;24.03;15.20;;;4.50;99.90;;;;;;5057880;28;20664;-66
2020/12/03 01:50:59;;;;;;;25.43;15.07;;;4.50;99.90;;;;;;5057480;28;20203;-65
2020/12/03 01:53:25;;;;;;;22.77;13.77;;;4.40;99.90;;;;;;5057175;28;20226;-66
2020/12/03 01:55:52;;;;;;;28.53;14.73;;;4.40;99.90;;;;;;5057622;28;20222;-66
2020/12/03 01:58:34;;;;;;;24.70;14.77;;;4.40;99.90;;;;;;5057736;28;20715;-66
2020/12/03 02:01:02;;;;;;;22.37;13.70;;;4.40;99.90;;;;;;5056646;28;20261;-67
2020/12/03 02:03:28;;;;;;;27.37;15.30;;;4.40;99.90;;;;;;5055847;28;20206;-66
2020/12/03 02:05:54;;;;;;;24.20;14.90;;;4.40;99.90;;;;;;5057438;28;20186;-66
2020/12/03 02:08:20;;;;;;;24.77;14.93;;;4.40;99.90;;;;;;5058086;28;20541;-67
2020/12/03 02:10:45;;;;;;;25.00;15.80;;;4.40;99.90;;;;;;5055057;28;20301;-66
2020/12/03 02:13:11;;;;;;;24.47;14.80;;;4.40;99.90;;;;;;5056839;28;20202;-66
2020/12/03 02:15:36;;;;;;;24.63;13.87;;;4.40;99.90;;;;;;5057225;28;20175;-67
2020/12/03 02:18:05;;;;;;;24.73;14.80;;;4.40;99.90;;;;;;5057007;28;20182;-66
2020/12/03 02:20:30;;;;;;;26.23;15.37;;;4.40;99.90;;;;;;5055694;28;20187;-66
2020/12/03 02:22:56;;;;;;;23.20;13.83;;;4.40;99.90;;;;;;5057271;28;20186;-67
2020/12/03 02:25:22;;;;;;;24.07;13.83;;;4.40;99.90;;;;;;5057334;28;20249;-66
2020/12/03 02:27:47;;;;;;;24.83;14.70;;;4.40;99.90;;;;;;5055399;28;20658;-65
2020/12/03 02:30:13;;;;;;;28.23;14.57;;;4.40;99.90;;;;;;5056904;28;20684;-65
2020/12/03 02:32:39;;;;;;;23.27;14.40;;;4.40;99.90;;;;;;5055661;28;20265;-67
2020/12/03 02:35:07;;;;;;;22.37;14.70;;;4.40;99.90;;;;;;5055697;28;20203;-66
2020/12/03 02:37:33;;;;;;;22.87;14.43;;;4.50;99.90;;;;;;5057123;28;20170;-66
2020/12/03 02:39:59;;;;;;;22.33;13.30;;;4.50;99.90;;;;;;5055104;28;20658;-67
2020/12/03 02:42:25;;;;;;;24.70;14.87;;;4.50;99.90;;;;;;5056715;28;20233;-66
2020/12/03 02:44:50;;;;;;;19.33;12.57;;;4.60;99.90;;;;;;5054546;28;20620;-66
2020/12/03 02:47:19;;;;;;;23.80;14.13;;;4.60;99.90;;;;;;5056326;28;20666;-65
2020/12/03 02:49:47;;;;;;;21.57;13.40;;;4.60;99.90;;;;;;5055134;28;20198;-66
2020/12/03 02:52:16;;;;;;;21.17;13.00;;;4.50;99.90;;;;;;5055864;28;20190;-65
2020/12/03 02:54:42;;;;;;;24.30;14.57;;;4.50;99.90;;;;;;5055753;28;20272;-66
2020/12/03 02:57:09;;;;;;;21.50;14.10;;;4.50;99.90;;;;;;5056311;28;20182;-67
2020/12/03 02:59:34;;;;;;;24.17;13.40;;;4.50;99.90;;;;;;5056151;28;20182;-65
2020/12/03 03:02:00;;;;;;;22.80;12.77;;;4.50;99.90;;;;;;5054468;28;20182;-67
2020/12/03 03:04:25;;;;;;;26.10;14.53;;;4.40;99.90;;;;;;5053685;28;20203;-66
2020/12/03 03:06:54;;;;;;;23.30;14.80;;;4.40;99.90;;;;;;5053746;28;20182;-67
2020/12/03 03:09:21;;;;;;;19.33;14.03;;;4.40;99.90;;;;;;5054110;28;20210;-67
2020/12/03 03:11:47;;;;;;;24.17;13.43;;;4.40;99.90;;;;;;5055146;28;20182;-66
2020/12/03 03:14:13;;;;;;;21.83;12.43;;;4.50;99.90;;;;;;5055845;28;20202;-66
2020/12/03 03:16:39;;;;;;;22.30;14.47;;;4.50;99.90;;;;;;5053938;28;20660;-66
2020/12/03 03:19:04;;;;;;;22.27;13.33;;;4.50;99.90;;;;;;5055824;28;20167;-66
2020/12/03 03:21:31;;;;;;;24.93;13.77;;;4.50;99.90;;;;;;5053912;28;20170;-67
2020/12/03 03:23:58;;;;;;;26.20;13.47;;;4.50;99.90;;;;;;5054685;28;20207;-65
2020/12/03 03:26:24;;;;;;;24.40;14.00;;;4.50;99.90;;;;;;5054834;28;20530;-66
2020/12/03 03:28:50;;;;;;;23.30;14.03;;;4.50;99.90;;;;;;5054483;28;20178;-66
2020/12/03 03:31:17;;;;;;;21.53;13.47;;;4.50;99.90;;;;;;5054330;28;20206;-65
2020/12/03 03:33:42;;;;;;;20.60;12.80;;;4.50;99.90;;;;;;5054586;28;20671;-66
2020/12/03 03:36:08;;;;;;;19.53;12.77;;;4.50;99.90;;;;;;5054320;28;20187;-66
2020/12/03 03:38:34;;;;;;;22.40;13.23;;;4.60;99.90;;;;;;5054573;28;20179;-66
2020/12/03 03:40:59;;;;;;;21.63;13.53;;;4.60;99.90;;;;;;5053247;28;20262;-67
2020/12/03 03:43:25;;;;;;;18.70;12.40;;;4.70;99.90;;;;;;5053345;28;20647;-67
2020/12/03 03:45:51;;;;;;;20.27;12.63;;;4.70;99.90;;;;;;5052451;28;20190;-67
2020/12/03 03:48:17;;;;;;;21.37;11.93;;;4.70;99.90;;;;;;5053828;28;20189;-66
2020/12/03 03:50:42;;;;;;;19.43;11.87;;;4.70;99.90;;;;;;5052843;28;20581;-67
2020/12/03 03:53:08;;;;;;;19.63;12.33;;;4.80;99.90;;;;;;5052839;28;20271;-66
2020/12/03 03:55:33;;;;;;;21.13;13.07;;;4.80;99.90;;;;;;5052784;28;20171;-65
2020/12/03 03:57:59;;;;;;;20.53;13.50;;;4.70;99.90;;;;;;5051157;28;20183;-67
2020/12/03 04:00:25;;;;;;;17.67;11.40;;;4.80;99.90;;;;;;5052826;28;20201;-66
2020/12/03 04:02:50;;;;;;;22.17;11.20;;;4.90;99.90;;;;;;5053632;28;20662;-66
2020/12/03 04:05:18;;;;;;;19.57;10.93;;;4.80;99.90;;;;;;5053783;28;20661;-67
2020/12/03 04:07:45;;;;;;;17.77;10.00;;;4.90;99.90;;;;;;5053031;28;20179;-66
2020/12/03 04:10:11;;;;;;;16.17;10.37;;;4.80;99.90;;;;;;5053468;28;20561;-66
2020/12/03 04:12:39;;;;;;;20.70;10.37;;;4.80;99.90;;;;;;5053563;28;20169;-66
2020/12/03 04:15:06;;;;;;;17.20;10.20;;;4.80;99.90;;;;;;5053304;28;20230;-66
2020/12/03 04:17:31;;;;;;;16.93;11.20;;;4.80;99.90;;;;;;5053401;28;20251;-66
2020/12/03 04:19:57;;;;;;;15.70;9.57;;;4.70;99.90;;;;;;5053344;28;20202;-67
2020/12/03 04:22:27;;;;;;;15.97;11.10;;;4.60;99.90;;;;;;5053872;28;20181;-66
2020/12/03 04:24:53;;;;;;;19.33;10.10;;;4.60;99.90;;;;;;5053390;28;20203;-66
2020/12/03 04:27:19;;;;;;;15.47;9.60;;;4.60;99.90;;;;;;5053942;28;20198;-66
2020/12/03 04:29:45;;;;;;;16.13;10.10;;;4.60;99.90;;;;;;5053554;28;20199;-65
2020/12/03 04:32:10;;;;;;;14.73;9.77;;;4.50;99.90;;;;;;5054118;28;20232;-66
2020/12/03 04:34:36;;;;;;;15.40;10.23;;;4.50;99.90;;;;;;5053851;28;20194;-67
2020/12/03 04:37:01;;;;;;;16.70;9.83;;;4.50;99.90;;;;;;5053525;28;20174;-66
2020/12/03 04:39:27;;;;;;;15.50;9.60;;;4.50;99.90;;;;;;5053661;28;20202;-66
2020/12/03 04:41:52;;;;;;;14.37;9.43;;;4.50;99.90;;;;;;5053579;28;20210;-66
2020/12/03 04:44:23;;;;;;;13.40;8.80;;;4.50;99.90;;;;;;5052970;28;20215;-66
2020/12/03 04:47:16;;;;;;;12.00;8.60;;;4.50;99.90;;;;;;5051521;28;20174;-63
2020/12/03 04:49:54;;;;;;;14.30;9.53;;;4.50;99.90;;;;;;5031582;28;20210;-66
2020/12/03 04:52:47;;;;;;;14.10;8.53;;;4.50;99.90;;;;;;5031952;28;20217;-65
2020/12/03 04:55:25;;;;;;;11.27;8.07;;;4.50;99.90;;;;;;5051155;28;20198;-65
2020/12/03 04:58:08;;;;;;;14.27;8.73;;;4.50;99.90;;;;;;5051568;28;20171;-65
2020/12/03 05:00:42;;;;;;;12.00;8.23;;;4.40;99.90;;;;;;5050892;28;20194;-64
2020/12/03 05:03:29;;;;;;;15.17;8.97;;;4.50;99.90;;;;;;5051272;28;20674;-65
2020/12/03 05:06:03;;;;;;;13.77;9.00;;;4.50;99.90;;;;;;5051155;28;20189;-65
2020/12/03 05:08:46;;;;;;;12.97;8.77;;;4.50;99.90;;;;;;5050075;28;20174;-64
2020/12/03 05:11:25;;;;;;;14.77;9.10;;;4.50;99.90;;;;;;5050803;28;20207;-68
2020/12/03 05:14:01;;;;;;;13.10;8.73;;;4.50;99.90;;;;;;5051071;28;20633;-65
2020/12/03 05:16:45;;;;;;;14.33;9.03;;;4.50;99.90;;;;;;5051093;28;20220;-66
2020/12/03 05:19:29;;;;;;;11.33;8.00;;;4.50;99.90;;;;;;5054067;28;20185;-62
2020/12/03 05:21:56;;;;;;;15.40;9.13;;;4.50;99.90;;;;;;5035035;28;20594;-63
2020/12/03 05:24:21;;;;;;;17.90;8.23;;;4.40;99.90;;;;;;5045872;28;20195;-65
2020/12/03 05:26:47;;;;;;;14.83;8.27;;;4.40;99.90;;;;;;5055133;28;20507;-64
2020/12/03 05:29:13;;;;;;;13.03;8.73;;;4.40;99.90;;;;;;5054797;28;20237;-64
2020/12/03 05:31:40;;;;;;;12.87;8.60;;;4.40;99.90;;;;;;5053341;28;20538;-65
2020/12/03 05:34:09;;;;;;;16.63;8.37;;;4.40;99.90;;;;;;5054751;28;20718;-65
2020/12/03 05:36:41;;;;;;;12.30;8.13;;;4.40;99.90;;;;;;5054889;28;20175;-65
2020/12/03 05:39:13;;;;;;;15.00;8.20;;;4.40;99.90;;;;;;5054828;28;20185;-65
2020/12/03 05:41:46;;;;;;;10.80;7.70;;;4.40;99.90;;;;;;5054474;28;20190;-66
2020/12/03 05:44:23;;;;;;;11.90;7.83;;;4.40;99.90;;;;;;5053232;28;20217;-65
2020/12/03 05:46:50;;;;;;;14.00;7.90;;;4.40;99.90;;;;;;5053405;28;20563;-65
2020/12/03 05:49:20;;;;;;;12.67;6.70;;;4.50;99.90;;;;;;5054272;28;20179;-64
2020/12/03 05:51:46;;;;;;;10.87;7.10;;;4.50;99.90;;;;;;5054203;28;20254;-63
2020/12/03 05:54:12;;;;;;;9.90;7.23;;;4.50;99.90;;;;;;5054645;28;20186;-65
2020/12/03 05:56:38;;;;;;;9.63;7.10;;;4.50;99.90;;;;;;5054267;28;20336;-65
2020/12/03 05:59:21;;;;;;;11.53;8.00;;;4.50;99.90;;;;;;5054465;28;20171;-65
2020/12/03 06:02:00;;;;;;;11.47;7.73;;;4.50;99.90;;;;;;5052770;28;20539;-65
2020/12/03 06:04:38;;;;;;;11.83;8.37;;;4.40;99.90;;;;;;5054402;28;20194;-63
2020/12/03 06:07:22;;;;;;;10.43;7.97;;;4.40;99.90;;;;;;5054385;28;20248;-65
2020/12/03 06:10:13;;;;;;;12.50;8.63;;;4.40;99.90;;;;;;5054160;28;20202;-65
2020/12/03 06:12:52;;;;;;;11.77;8.53;;;4.40;99.90;;;;;;5053771;28;20533;-66
2020/12/03 06:15:44;;;;;;;13.40;8.43;;;4.30;99.90;;;;;;5054175;28;20262;-65
2020/12/03 06:18:28;;;;;;;14.03;8.00;;;4.30;99.90;;;;;;5053989;28;20207;-65
2020/12/03 06:21:24;;;;;;;14.63;8.47;;;4.30;99.90;;;;;;5053806;28;20675;-66
2020/12/03 06:24:10;;;;;;;11.33;7.80;;;4.30;99.90;;;;;;5053829;28;20353;-66
2020/12/03 06:26:40;;;;;;;13.40;8.87;;;4.30;99.90;;;;;;5052665;28;20244;-65
2020/12/03 06:29:18;;;;;;;13.73;9.13;;;4.30;99.90;;;;;;5053408;28;20183;-65
2020/12/03 06:32:05;;;;;;;13.40;8.87;;;4.30;99.90;;;;;;5053151;28;20185;-65
2020/12/03 06:34:45;;;;;;;11.60;8.13;;;4.30;99.90;;;;;;5033901;28;20286;-64
2020/12/03 06:37:41;;;;;;;12.73;9.03;;;4.30;99.90;;;;;;5036649;28;20236;-65
2020/12/03 06:40:13;;;;;;;10.93;8.20;;;4.30;99.90;;;;;;5052947;28;20221;-65
2020/12/03 06:42:51;;;;;;;13.27;8.67;;;4.20;99.90;;;;;;5053435;28;20621;-65
2020/12/03 06:45:34;;;;;;;15.60;8.30;;;4.20;99.90;;;;;;5052152;28;20191;-67
2020/12/03 06:48:19;;;;;;;13.50;8.43;;;4.30;99.90;;;;;;5053728;28;20171;-65
2020/12/03 06:51:11;;;;;;;13.27;8.63;;;4.20;99.90;;;;;;5052856;28;20202;-64
2020/12/03 06:54:14;;;;;;;14.70;7.83;;;4.20;99.90;;;;;;5053179;28;20190;-66
2020/12/03 06:56:45;;;;;;;10.40;7.53;;;4.20;99.90;;;;;;5053083;28;20232;-64
2020/12/03 07:00:06;;;;;;;11.03;8.43;;;4.20;99.90;;;;;;5051671;28;20175;-65
2020/12/03 07:02:51;;;;;;;11.67;7.27;;;4.20;99.90;;;;;;5050293;28;20180;-63
2020/12/03 07:05:37;;;;;;;14.00;8.67;;;4.20;99.90;;;;;;5052611;28;20240;-65
2020/12/03 07:08:09;;;;;;;12.87;7.73;;;4.20;99.90;;;;;;5052812;28;20265;-65
2020/12/03 07:11:12;;;;;;;14.57;7.43;;;4.20;99.90;;;;;;5052254;28;20209;-65
2020/12/03 07:14:02;;;;;;;13.27;8.67;;;4.30;99.90;;;;;;5051475;28;20195;-63
2020/12/03 07:17:03;;;;;;;10.53;7.33;;;4.30;99.90;;;;;;5051780;28;20580;-65
2020/12/03 07:19:54;;;;;;;15.00;10.07;;;4.30;99.90;;;;;;5050998;28;20182;-65
2020/12/03 07:22:44;;;;;;;14.83;9.50;;;4.30;99.90;;;;;;5053126;28;20707;-65
2020/12/03 07:25:14;;;;;;;17.60;9.67;;;4.30;99.90;;;;;;5052459;28;20198;-65
2020/12/03 07:27:57;;;;;;;17.50;9.70;;;4.30;99.90;;;;;;5052287;28;20175;-66
2020/12/03 07:30:43;;;;;;;12.87;7.47;;;4.40;99.90;;;;;;5052382;28;20194;-65
2020/12/03 07:33:28;;;;;;;13.57;8.07;;;4.40;99.90;;;;;;5052390;28;20193;-65
2020/12/03 07:36:35;;;;;;;13.07;8.57;;;4.40;99.90;;;;;;5052451;28;20652;-65
2020/12/03 07:39:10;;;;;;;10.57;7.20;;;4.40;99.90;;;;;;5052245;28;20308;-65
2020/12/03 07:41:51;;;;;;;10.33;7.50;;;4.40;99.90;;;;;;5051418;28;20170;-67
2020/12/03 07:44:34;;;;;;;12.07;8.83;;;4.40;99.90;;;;;;5052435;28;20230;-64
2020/12/03 07:47:32;;;;;;;16.13;9.20;;;4.40;99.90;;;;;;5052664;28;20175;-65
2020/12/03 07:50:00;;;;;;;14.93;9.30;;;4.40;99.90;;;;;;5052034;28;20236;-64
2020/12/03 07:52:26;;;;;;;14.10;8.97;;;4.40;99.90;;;;;;5051954;28;20530;-66
2020/12/03 07:54:52;;;;;;;12.27;8.20;;;4.40;99.90;;;;;;5052087;28;20183;-64
2020/12/03 07:57:45;;;;;;;16.43;9.20;;;4.40;99.90;;;;;;5051930;28;20186;-65
2020/12/03 08:00:29;;;;;;;15.53;10.03;;;4.40;99.90;;;;;;5051784;28;20179;-65
2020/12/03 08:02:57;;;;;;;17.13;10.43;;;4.40;99.90;;;;;;5051840;28;20704;-65
2020/12/03 08:05:49;;;;;;;14.13;8.87;;;4.40;99.90;;;;;;5052020;28;20186;-66
2020/12/03 08:08:24;;;;;;;18.50;10.53;;;4.40;99.90;;;;;;5051728;28;20203;-65
2020/12/03 08:10:54;;;;;;;14.00;9.63;;;4.40;99.90;;;;;;5051349;28;20224;-64
2020/12/03 08:13:28;;;;;;;16.20;8.10;;;4.40;99.90;;;;;;5051753;28;20201;-65
2020/12/03 08:16:03;;;;;;;17.87;9.30;;;4.40;99.90;;;;;;5051888;28;20644;-61
2020/12/03 08:19:00;;;;;;;14.17;9.47;;;4.40;99.90;;;;;;5051465;28;20549;-65
2020/12/03 08:21:41;;;;;;;15.70;8.70;;;4.40;99.90;;;;;;5051451;28;20226;-64
2020/12/03 08:24:26;;;;;;;11.33;8.10;;;4.40;99.90;;;;;;5051382;28;20209;-65
2020/12/03 08:27:18;;;;;;;16.87;9.33;;;4.40;99.90;;;;;;5051386;28;20209;-66
2020/12/03 08:29:44;;;;;;;13.57;9.43;;;4.40;99.90;;;;;;5051239;28;20198;-65
2020/12/03 08:32:10;;;;;;;14.03;8.67;;;4.40;99.90;;;;;;5051079;28;20618;-65
2020/12/03 08:34:37;;;;;;;15.40;8.67;;;4.30;99.90;;;;;;5049463;28;20557;-65
2020/12/03 08:37:08;;;;;;;14.77;9.27;;;4.40;99.90;;;;;;5051688;28;20444;-65
2020/12/03 08:39:33;;;;;;;13.47;8.37;;;4.40;99.90;;;;;;5049950;28;20198;-66
2020/12/03 08:42:00;;;;;;;17.97;9.90;;;4.40;99.90;;;;;;5051231;28;20630;-65
2020/12/03 08:44:28;;;;;;;18.13;10.07;;;4.40;99.90;;;;;;5050478;28;20204;-66
2020/12/03 08:46:57;;;;;;;13.00;8.97;;;4.40;99.90;;;;;;5051372;28;20171;-65
2020/12/03 08:49:24;;;;;;;15.43;9.60;;;4.40;99.90;;;;;;5051483;28;20366;-63
2020/12/03 08:51:55;;;;;;;15.90;9.57;;;4.40;99.90;;;;;;5051097;28;20497;-65
2020/12/03 08:54:29;;;;;;;12.87;8.53;;;4.40;99.90;;;;;;5050634;28;20183;-64
2020/12/03 08:57:10;;;;;;;13.90;9.73;;;4.50;99.90;;;;;;5051396;28;20171;-65
2020/12/03 08:59:42;;;;;;;16.53;10.07;;;4.50;99.90;;;;;;5051100;28;20249;-66
2020/12/03 09:02:12;;;;;;;14.33;8.67;;;4.50;99.90;;;;;;5050969;28;20244;-64
2020/12/03 09:04:55;;;;;;;14.80;9.73;;;4.50;99.90;;;;;;5051172;28;20201;-66
2020/12/03 09:07:27;;;;;;;14.03;9.77;;;4.50;99.90;;;;;;5051429;28;20179;-65
2020/12/03 09:09:53;;;;;;;18.03;9.20;;;4.50;99.90;;;;;;5049197;28;20206;-66
2020/12/03 09:12:23;;;;;;;15.57;8.40;;;4.50;99.90;;;;;;5048943;28;20182;-66
2020/12/03 09:14:50;;;;;;;14.33;9.17;;;4.60;99.90;;;;;;5050650;28;20218;-63
2020/12/03 09:17:19;;;;;;;16.17;9.23;;;4.60;99.90;;;;;;5050622;28;20265;-65
2020/12/03 09:19:45;;;;;;;12.97;9.27;;;4.60;99.90;;;;;;5050959;28;20177;-65
2020/12/03 09:22:13;;;;;;;15.57;9.37;;;4.60;99.90;;;;;;5050425;28;20545;-66
2020/12/03 09:24:40;;;;;;;17.77;9.80;;;4.70;99.90;;;;;;5051176;28;20186;-65
2020/12/03 09:27:08;;;;;;;13.57;9.37;;;4.70;99.90;;;;;;5049092;28;20201;-64
2020/12/03 09:29:34;;;;;;;11.03;8.07;;;4.70;99.90;;;;;;5050440;28;20195;-65
2020/12/03 09:32:04;;;;;;;19.93;9.40;;;4.60;99.90;;;;;;5050580;28;20167;-64
2020/12/03 09:34:34;;;;;;;14.00;8.80;;;4.70;99.90;;;;;;5049913;28;20214;-65
2020/12/03 09:37:03;;;;;;;13.43;9.43;;;4.70;99.90;;;;;;5048875;28;20658;-65
2020/12/03 09:39:31;;;;;;;12.67;9.13;;;4.70;99.90;;;;;;5032421;28;20263;-65
2020/12/03 09:41:57;;;;;;;13.33;8.73;;;4.80;99.90;;;;;;5048576;28;20209;-65
2020/12/03 09:44:23;;;;;;;14.23;9.13;;;4.80;99.90;;;;;;5050490;28;20207;-65
2020/12/03 09:46:52;;;;;;;15.20;9.00;;;4.80;99.90;;;;;;5050731;28;20171;-65
2020/12/03 09:49:18;;;;;;;13.00;8.00;;;4.90;99.90;;;;;;5048881;28;20170;-65
2020/12/03 09:51:45;;;;;;;15.67;9.20;;;4.90;99.90;;;;;;5049886;28;20676;-65
2020/12/03 09:54:11;;;;;;;14.07;8.87;;;4.90;99.90;;;;;;5050532;28;20202;-65
2020/12/03 09:56:38;;;;;;;14.83;9.63;;;4.90;99.90;;;;;;5048527;28;20186;-65
2020/12/03 09:59:04;;;;;;;14.10;9.37;;;4.90;99.90;;;;;;5050289;28;20163;-66
2020/12/03 10:02:07;;;;;;;16.43;9.07;;;5.00;99.90;;;;;;5050093;28;20217;-65
2020/12/03 10:04:48;;;;;;;12.83;9.27;;;5.00;99.90;;;;;;5051474;28;20718;-64
2020/12/03 10:07:22;;;;;;;14.97;10.00;;;5.00;99.90;;;;;;5054334;28;20234;-65
2020/12/03 10:10:20;;;;;;;13.73;8.97;;;5.00;99.90;;;;;;5053408;28;20206;-66
2020/12/03 10:13:20;;;;;;;18.67;9.33;;;5.00;99.90;;;;;;5053415;28;20170;-66
2020/12/03 10:16:03;;;;;;;14.33;9.30;;;5.10;99.90;;;;;;5034295;28;20168;-64
2020/12/03 10:18:49;;;;;;;12.27;8.77;;;5.10;99.90;;;;;;5044863;28;20177;-66
2020/12/03 10:21:21;;;;;;;13.87;8.30;;;5.10;99.90;;;;;;5053633;28;20179;-65
2020/12/03 10:23:57;;;;;;;15.83;9.13;;;5.10;99.90;;;;;;5048697;28;20242;-65
2020/12/03 10:26:37;;;;;;;16.50;9.67;;;5.10;99.90;;;;;;5043266;28;20185;-67
2020/12/03 10:29:28;;;;;;;14.27;9.03;;;5.10;99.90;;;;;;5053672;28;20185;-66
2020/12/03 10:31:54;;;;;;;14.43;9.27;;;5.10;99.90;;;;;;5052379;28;20550;-65
2020/12/03 10:34:20;;;;;;;17.67;10.90;;;5.10;99.90;;;;;;5053424;28;20194;-64
2020/12/03 10:37:06;;;;;;;23.07;12.17;;;5.10;99.90;;;;;;5053147;28;20336;-65
2020/12/03 10:39:43;;;;;;;17.17;10.73;;;5.10;99.90;;;;;;5053259;28;20542;-65
2020/12/03 10:42:12;;;;;;;25.13;13.03;;;5.10;99.90;;;;;;5053240;28;20173;-66
2020/12/03 10:44:42;;;;;;;19.30;12.00;;;5.10;99.90;;;;;;5054622;22;20274;-66
2020/12/03 10:47:13;;;;;;;21.80;12.70;;;5.10;99.90;;;;;;5013905;28;20641;-65
2020/12/03 10:49:42;;;;;;;15.67;10.73;;;5.10;99.90;;;;;;5013134;28;20569;-64
2020/12/03 10:52:10;;;;;;;17.93;10.87;;;5.10;99.90;;;;;;5013390;28;20168;-65
2020/12/03 10:54:36;;;;;;;20.23;11.10;;;5.10;99.90;;;;;;5002147;28;20197;-64
2020/12/03 10:57:32;;;;;;;16.27;10.47;;;5.10;99.90;;;;;;4992729;28;20181;-64
2020/12/03 11:00:01;;;;;;;15.57;10.73;;;5.20;99.90;;;;;;4984670;28;20193;-64
2020/12/03 11:02:36;;;;;;;14.50;9.23;;;5.10;99.90;;;;;;4993796;28;20176;-64
2020/12/03 11:05:06;;;;;;;15.77;9.27;;;5.20;99.90;;;;;;4994300;28;20207;-64
2020/12/03 11:07:33;;;;;;;14.63;9.43;;;5.20;99.90;;;;;;4993182;28;20204;-64
2020/12/03 11:09:59;;;;;;;16.47;10.00;;;5.20;99.90;;;;;;4993339;28;20216;-64
2020/12/03 11:12:27;;;;;;;14.33;9.83;;;5.20;99.90;;;;;;4993077;28;20184;-64
2020/12/03 11:14:53;;;;;;;16.27;8.33;;;5.20;99.90;;;;;;4993480;28;20204;-64
2020/12/03 11:17:22;;;;;;;20.93;10.00;;;5.30;99.90;;;;;;4992932;28;20242;-65
2020/12/03 11:19:58;;;;;;;16.43;8.90;;;5.30;99.90;;;;;;4993217;28;20217;-65
2020/12/03 11:22:41;;;;;;;11.63;8.03;;;5.40;99.90;;;;;;4993239;28;20211;-65
2020/12/03 11:25:08;;;;;;;12.33;8.07;;;5.40;99.90;;;;;;4992967;28;20201;-64
2020/12/03 11:27:37;;;;;;;12.43;8.30;;;5.50;99.90;;;;;;4992759;28;20184;-64
2020/12/03 11:30:19;;;;;;;11.83;8.47;;;5.70;99.90;;;;;;5006909;28;20239;-64
2020/12/03 11:32:52;;;;;;;13.90;8.00;;;6.20;99.90;;;;;;5009513;28;20263;-64
2020/12/03 11:35:24;;;;;;;12.90;7.97;;;6.30;99.90;;;;;;4993000;28;20201;-65
2020/12/03 11:37:59;;;;;;;14.23;8.07;;;6.40;99.90;;;;;;4993170;28;20212;-64
2020/12/03 11:40:34;;;;;;;12.53;7.40;;;6.40;99.90;;;;;;4992948;28;20243;-64
2020/12/03 11:50:25;;;;;;;11.17;6.83;;;6.50;99.90;;;;;;4992478;28;20303;-65
2020/12/03 11:52:51;;;;;;;9.10;6.43;;;6.80;99.90;;;;;;4992863;28;20526;-65
2020/12/03 11:55:25;;;;;;;9.10;6.73;;;6.90;99.90;;;;;;4992964;28;20193;-64
2020/12/03 11:57:51;;;;;;;12.77;7.50;;;7.00;99.90;;;;;;4992287;28;20172;-65
2020/12/03 12:00:19;;;;;;;9.00;6.17;;;6.90;99.90;;;;;;4992277;28;20191;-65
2020/12/03 12:02:45;;;;;;;8.50;6.20;;;6.80;99.90;;;;;;4992493;28;20196;-65
2020/12/03 12:05:30;;;;;;;10.37;7.17;;;6.80;99.90;;;;;;4992790;28;20203;-65
2020/12/03 12:08:31;;;;;;;10.80;6.97;;;6.80;99.90;;;;;;4977254;28;20188;-65
2020/12/03 12:13:20;;;;;;;12.10;6.97;;;6.80;99.90;;;;;;4992399;28;20267;-65
2020/12/03 12:15:46;;;;;;;11.97;7.33;;;6.70;99.90;;;;;;4991822;28;20177;-65
2020/12/03 12:18:12;;;;;;;10.20;6.67;;;6.70;99.90;;;;;;4992669;28;20165;-64
2020/12/03 12:20:38;;;;;;;12.07;7.10;;;6.70;99.90;;;;;;4991595;28;20181;-65
2020/12/03 12:23:04;;;;;;;10.10;7.17;;;6.70;99.90;;;;;;4992744;28;20172;-65
2020/12/03 12:25:30;;;;;;;12.00;7.13;;;6.70;99.90;;;;;;4991638;28;20219;-65
2020/12/03 12:27:55;;;;;;;10.03;6.37;;;6.80;99.90;;;;;;4972027;28;20551;-65
2020/12/03 12:30:21;;;;;;;8.73;6.33;;;6.90;99.90;;;;;;4984762;28;20211;-65
2020/12/03 12:32:46;;;;;;;9.60;6.70;;;7.00;99.90;;;;;;4992203;28;20185;-65
2020/12/03 12:35:12;;;;;;;9.50;6.93;;;7.00;99.90;;;;;;4991730;28;20209;-65
2020/12/03 12:37:38;;;;;;;9.90;6.87;;;7.00;99.90;;;;;;4991913;28;20177;-64
2020/12/03 12:40:04;;;;;;;8.90;6.40;;;7.00;99.90;;;;;;4991901;28;20177;-65
2020/12/03 12:42:30;;;;;;;12.80;7.50;;;6.90;99.90;;;;;;4991992;28;20176;-65
2020/12/03 12:44:56;;;;;;;9.30;6.73;;;6.80;99.90;;;;;;4991622;28;20213;-64
2020/12/03 12:47:23;;;;;;;9.70;6.07;;;6.80;99.90;;;;;;4992092;28;20542;-65
2020/12/03 12:49:50;;;;;;;12.33;7.17;;;6.70;99.90;;;;;;4991725;28;20263;-65
2020/12/03 12:52:15;;;;;;;11.23;6.90;;;6.70;99.90;;;;;;4991691;28;20542;-65
2020/12/03 12:54:42;;;;;;;7.87;5.77;;;6.70;99.90;;;;;;4992065;28;20209;-65
2020/12/03 12:57:07;;;;;;;8.03;5.80;;;6.70;99.90;;;;;;4992214;28;20179;-65
2020/12/03 12:59:33;;;;;;;11.70;6.97;;;6.60;99.90;;;;;;4991469;28;20263;-65
2020/12/03 13:01:59;;;;;;;9.97;6.63;;;6.60;99.90;;;;;;4991469;28;20188;-65
2020/12/03 13:04:25;;;;;;;9.03;5.70;;;6.50;99.90;;;;;;4992042;28;20536;-65
2020/12/03 13:06:56;;;;;;;7.73;5.57;;;6.60;99.90;;;;;;4991899;28;20638;-65
2020/12/03 13:09:22;;;;;;;10.43;6.37;;;6.60;99.90;;;;;;4991683;28;20608;-65
2020/12/03 13:11:48;;;;;;;9.67;6.53;;;6.60;99.90;;;;;;4991321;28;20616;-65
2020/12/03 13:14:14;;;;;;;10.43;6.73;;;6.60;99.90;;;;;;4992164;28;20212;-65
2020/12/03 13:16:40;;;;;;;11.20;7.47;;;6.60;99.90;;;;;;4991580;28;20647;-65
2020/12/03 13:19:07;;;;;;;10.57;6.30;;;6.50;99.90;;;;;;4991582;28;20177;-65